sensor_id;sensor_type;location;lat;lon;timestamp;P1;durP1;ratioP1;P2;durP2;ratioP2
7571;SDS011;3827;49.928;8.548;2022-10-26T00:00:05;5.20;;;3.37;;
7571;SDS011;3827;49.928;8.548;2022-10-26T00:02:33;7.97;;;3.50;;
7571;SDS011;3827;49.928;8.548;2022-10-26T00:05:00;8.48;;;3.13;;
7571;SDS011;3827;49.928;8.548;2022-10-26T00:07:27;5.05;;;3.10;;
7571;SDS011;3827;49.928;8.548;2022-10-26T00:09:54;5.30;;;2.88;;
7571;SDS011;3827;49.928;8.548;2022-10-26T00:12:21;6.35;;;2.95;;
7571;SDS011;3827;49.928;8.548;2022-10-26T00:14:49;5.10;;;3.10;;
7571;SDS011;3827;49.928;8.548;2022-10-26T00:17:16;5.80;;;2.88;;
7571;SDS011;3827;49.928;8.548;2022-10-26T00:19:43;7.65;;;3.30;;
7571;SDS011;3827;49.928;8.548;2022-10-26T00:22:09;8.57;;;3.10;;
7571;SDS011;3827;49.928;8.548;2022-10-26T00:24:36;5.97;;;3.40;;
7571;SDS011;3827;49.928;8.548;2022-10-26T00:27:03;7.28;;;3.40;;
7571;SDS011;3827;49.928;8.548;2022-10-26T00:29:30;5.97;;;3.00;;
7571;SDS011;3827;49.928;8.548;2022-10-26T00:31:58;5.95;;;3.10;;
7571;SDS011;3827;49.928;8.548;2022-10-26T00:34:24;6.78;;;3.10;;
7571;SDS011;3827;49.928;8.548;2022-10-26T00:36:51;8.90;;;3.35;;
7571;SDS011;3827;49.928;8.548;2022-10-26T00:39:18;6.13;;;3.15;;
7571;SDS011;3827;49.928;8.548;2022-10-26T00:41:45;5.28;;;3.15;;
7571;SDS011;3827;49.928;8.548;2022-10-26T00:47:22;7.82;;;3.17;;
7571;SDS011;3827;49.928;8.548;2022-10-26T00:49:57;8.20;;;4.80;;
7571;SDS011;3827;49.928;8.548;2022-10-26T00:52:27;6.40;;;3.57;;
7571;SDS011;3827;49.928;8.548;2022-10-26T00:54:55;5.20;;;3.45;;
7571;SDS011;3827;49.928;8.548;2022-10-26T00:57:21;5.30;;;3.80;;
7571;SDS011;3827;49.928;8.548;2022-10-26T00:59:49;4.95;;;3.60;;
7571;SDS011;3827;49.928;8.548;2022-10-26T01:02:19;6.57;;;3.47;;
7571;SDS011;3827;49.928;8.548;2022-10-26T01:04:47;5.95;;;3.40;;
7571;SDS011;3827;49.928;8.548;2022-10-26T01:07:15;5.15;;;3.67;;
7571;SDS011;3827;49.928;8.548;2022-10-26T01:09:42;4.15;;;3.10;;
7571;SDS011;3827;49.928;8.548;2022-10-26T01:12:09;6.30;;;3.45;;
7571;SDS011;3827;49.928;8.548;2022-10-26T01:14:36;5.22;;;3.15;;
7571;SDS011;3827;49.928;8.548;2022-10-26T01:17:05;5.65;;;3.25;;
7571;SDS011;3827;49.928;8.548;2022-10-26T01:19:54;3.83;;;2.90;;
7571;SDS011;3827;49.928;8.548;2022-10-26T01:23:01;7.65;;;3.47;;
7571;SDS011;3827;49.928;8.548;2022-10-26T01:25:44;8.85;;;3.05;;
7571;SDS011;3827;49.928;8.548;2022-10-26T01:28:35;4.88;;;3.13;;
7571;SDS011;3827;49.928;8.548;2022-10-26T01:31:19;5.18;;;3.30;;
7571;SDS011;3827;49.928;8.548;2022-10-26T01:33:51;6.20;;;3.38;;
7571;SDS011;3827;49.928;8.548;2022-10-26T01:36:26;8.45;;;3.70;;
7571;SDS011;3827;49.928;8.548;2022-10-26T01:38:59;5.15;;;3.70;;
7571;SDS011;3827;49.928;8.548;2022-10-26T01:41:31;5.50;;;3.50;;
7571;SDS011;3827;49.928;8.548;2022-10-26T01:44:01;7.97;;;3.67;;
7571;SDS011;3827;49.928;8.548;2022-10-26T01:46:32;5.10;;;3.25;;
7571;SDS011;3827;49.928;8.548;2022-10-26T01:49:04;8.20;;;3.80;;
7571;SDS011;3827;49.928;8.548;2022-10-26T01:51:34;7.90;;;3.72;;
7571;SDS011;3827;49.928;8.548;2022-10-26T01:54:01;6.35;;;3.83;;
7571;SDS011;3827;49.928;8.548;2022-10-26T01:56:29;5.63;;;3.60;;
7571;SDS011;3827;49.928;8.548;2022-10-26T01:59:20;7.38;;;3.70;;
7571;SDS011;3827;49.928;8.548;2022-10-26T02:04:55;6.82;;;3.60;;
7571;SDS011;3827;49.928;8.548;2022-10-26T02:07:33;4.15;;;3.75;;
7571;SDS011;3827;49.928;8.548;2022-10-26T02:10:12;5.13;;;3.38;;
7571;SDS011;3827;49.928;8.548;2022-10-26T02:12:52;6.45;;;3.50;;
7571;SDS011;3827;49.928;8.548;2022-10-26T02:15:28;8.15;;;3.80;;
7571;SDS011;3827;49.928;8.548;2022-10-26T02:18:04;4.72;;;2.95;;
7571;SDS011;3827;49.928;8.548;2022-10-26T02:20:40;6.55;;;3.60;;
7571;SDS011;3827;49.928;8.548;2022-10-26T02:23:10;7.18;;;4.18;;
7571;SDS011;3827;49.928;8.548;2022-10-26T02:25:40;4.72;;;3.58;;
7571;SDS011;3827;49.928;8.548;2022-10-26T02:28:12;8.32;;;3.97;;
7571;SDS011;3827;49.928;8.548;2022-10-26T02:30:42;5.33;;;3.20;;
7571;SDS011;3827;49.928;8.548;2022-10-26T02:33:13;6.30;;;3.50;;
7571;SDS011;3827;49.928;8.548;2022-10-26T02:35:41;6.10;;;3.75;;
7571;SDS011;3827;49.928;8.548;2022-10-26T02:38:12;10.77;;;4.40;;
7571;SDS011;3827;49.928;8.548;2022-10-26T02:40:42;8.45;;;4.38;;
7571;SDS011;3827;49.928;8.548;2022-10-26T02:43:10;6.60;;;3.90;;
7571;SDS011;3827;49.928;8.548;2022-10-26T02:45:40;6.38;;;4.22;;
7571;SDS011;3827;49.928;8.548;2022-10-26T02:48:12;5.73;;;3.90;;
7571;SDS011;3827;49.928;8.548;2022-10-26T02:50:42;6.68;;;4.15;;
7571;SDS011;3827;49.928;8.548;2022-10-26T02:53:13;5.25;;;3.65;;
7571;SDS011;3827;49.928;8.548;2022-10-26T02:55:48;4.80;;;3.50;;
7571;SDS011;3827;49.928;8.548;2022-10-26T02:58:19;8.52;;;4.03;;
7571;SDS011;3827;49.928;8.548;2022-10-26T03:00:49;3.75;;;3.30;;
7571;SDS011;3827;49.928;8.548;2022-10-26T03:03:18;6.63;;;3.80;;
7571;SDS011;3827;49.928;8.548;2022-10-26T03:05:45;6.85;;;3.78;;
7571;SDS011;3827;49.928;8.548;2022-10-26T03:08:12;4.73;;;3.50;;
7571;SDS011;3827;49.928;8.548;2022-10-26T03:10:40;4.43;;;3.53;;
7571;SDS011;3827;49.928;8.548;2022-10-26T03:13:08;5.57;;;3.63;;
7571;SDS011;3827;49.928;8.548;2022-10-26T03:15:36;4.78;;;3.50;;
7571;SDS011;3827;49.928;8.548;2022-10-26T03:18:03;7.90;;;3.70;;
7571;SDS011;3827;49.928;8.548;2022-10-26T03:20:32;5.68;;;3.60;;
7571;SDS011;3827;49.928;8.548;2022-10-26T03:22:58;4.85;;;3.72;;
7571;SDS011;3827;49.928;8.548;2022-10-26T03:25:25;7.32;;;3.75;;
7571;SDS011;3827;49.928;8.548;2022-10-26T03:27:55;5.77;;;4.00;;
7571;SDS011;3827;49.928;8.548;2022-10-26T03:30:23;6.63;;;3.83;;
7571;SDS011;3827;49.928;8.548;2022-10-26T03:32:50;5.03;;;3.67;;
7571;SDS011;3827;49.928;8.548;2022-10-26T03:35:17;3.50;;;3.20;;
7571;SDS011;3827;49.928;8.548;2022-10-26T03:37:45;4.88;;;3.53;;
7571;SDS011;3827;49.928;8.548;2022-10-26T03:40:12;5.55;;;4.10;;
7571;SDS011;3827;49.928;8.548;2022-10-26T03:42:39;6.20;;;3.70;;
7571;SDS011;3827;49.928;8.548;2022-10-26T03:45:07;7.05;;;4.10;;
7571;SDS011;3827;49.928;8.548;2022-10-26T03:47:39;7.97;;;4.15;;
7571;SDS011;3827;49.928;8.548;2022-10-26T03:50:09;8.25;;;4.25;;
7571;SDS011;3827;49.928;8.548;2022-10-26T03:52:36;9.23;;;4.70;;
7571;SDS011;3827;49.928;8.548;2022-10-26T03:55:05;5.38;;;3.90;;
7571;SDS011;3827;49.928;8.548;2022-10-26T03:57:32;6.88;;;4.38;;
7571;SDS011;3827;49.928;8.548;2022-10-26T03:59:59;6.45;;;4.18;;
7571;SDS011;3827;49.928;8.548;2022-10-26T04:02:27;4.65;;;4.00;;
7571;SDS011;3827;49.928;8.548;2022-10-26T04:04:54;5.85;;;3.97;;
7571;SDS011;3827;49.928;8.548;2022-10-26T04:07:20;5.90;;;3.83;;
7571;SDS011;3827;49.928;8.548;2022-10-26T04:09:47;4.90;;;3.80;;
7571;SDS011;3827;49.928;8.548;2022-10-26T04:12:15;6.10;;;3.70;;
7571;SDS011;3827;49.928;8.548;2022-10-26T04:14:42;6.40;;;4.40;;
7571;SDS011;3827;49.928;8.548;2022-10-26T04:17:09;7.38;;;4.35;;
7571;SDS011;3827;49.928;8.548;2022-10-26T04:19:35;7.77;;;4.00;;
7571;SDS011;3827;49.928;8.548;2022-10-26T04:22:02;6.95;;;4.25;;
7571;SDS011;3827;49.928;8.548;2022-10-26T04:24:29;7.00;;;4.15;;
7571;SDS011;3827;49.928;8.548;2022-10-26T04:26:56;5.85;;;4.00;;
7571;SDS011;3827;49.928;8.548;2022-10-26T04:29:24;6.05;;;4.30;;
7571;SDS011;3827;49.928;8.548;2022-10-26T04:31:51;4.73;;;4.17;;
7571;SDS011;3827;49.928;8.548;2022-10-26T04:34:18;6.63;;;4.20;;
7571;SDS011;3827;49.928;8.548;2022-10-26T04:36:45;4.95;;;4.30;;
7571;SDS011;3827;49.928;8.548;2022-10-26T04:39:11;5.07;;;4.32;;
7571;SDS011;3827;49.928;8.548;2022-10-26T04:41:38;6.07;;;4.38;;
7571;SDS011;3827;49.928;8.548;2022-10-26T04:44:05;5.97;;;4.77;;
7571;SDS011;3827;49.928;8.548;2022-10-26T04:46:33;5.63;;;4.35;;
7571;SDS011;3827;49.928;8.548;2022-10-26T04:49:00;5.38;;;4.45;;
7571;SDS011;3827;49.928;8.548;2022-10-26T04:51:27;7.00;;;4.88;;
7571;SDS011;3827;49.928;8.548;2022-10-26T04:53:53;5.25;;;4.63;;
7571;SDS011;3827;49.928;8.548;2022-10-26T04:56:22;6.50;;;4.77;;
7571;SDS011;3827;49.928;8.548;2022-10-26T04:58:49;8.85;;;5.35;;
7571;SDS011;3827;49.928;8.548;2022-10-26T05:01:18;6.50;;;5.18;;
7571;SDS011;3827;49.928;8.548;2022-10-26T05:03:48;5.70;;;4.68;;
7571;SDS011;3827;49.928;8.548;2022-10-26T05:06:15;7.85;;;5.38;;
7571;SDS011;3827;49.928;8.548;2022-10-26T05:08:42;12.95;;;11.63;;
7571;SDS011;3827;49.928;8.548;2022-10-26T05:11:09;16.75;;;15.05;;
7571;SDS011;3827;49.928;8.548;2022-10-26T05:13:36;21.88;;;19.65;;
7571;SDS011;3827;49.928;8.548;2022-10-26T05:16:03;28.90;;;25.80;;
7571;SDS011;3827;49.928;8.548;2022-10-26T05:18:30;24.92;;;22.38;;
7571;SDS011;3827;49.928;8.548;2022-10-26T05:20:58;19.27;;;17.23;;
7571;SDS011;3827;49.928;8.548;2022-10-26T05:23:25;15.60;;;13.53;;
7571;SDS011;3827;49.928;8.548;2022-10-26T05:25:52;12.90;;;11.60;;
7571;SDS011;3827;49.928;8.548;2022-10-26T05:28:20;12.10;;;10.43;;
7571;SDS011;3827;49.928;8.548;2022-10-26T05:30:47;7.47;;;6.53;;
7571;SDS011;3827;49.928;8.548;2022-10-26T05:33:14;6.70;;;5.60;;
7571;SDS011;3827;49.928;8.548;2022-10-26T05:35:41;6.07;;;4.90;;
7571;SDS011;3827;49.928;8.548;2022-10-26T05:38:09;5.05;;;4.07;;
7571;SDS011;3827;49.928;8.548;2022-10-26T05:40:39;7.82;;;5.00;;
7571;SDS011;3827;49.928;8.548;2022-10-26T05:43:12;4.88;;;4.15;;
7571;SDS011;3827;49.928;8.548;2022-10-26T05:45:38;5.40;;;4.90;;
7571;SDS011;3827;49.928;8.548;2022-10-26T05:48:05;5.80;;;5.00;;
7571;SDS011;3827;49.928;8.548;2022-10-26T05:50:32;6.25;;;4.88;;
7571;SDS011;3827;49.928;8.548;2022-10-26T05:52:59;5.40;;;4.90;;
7571;SDS011;3827;49.928;8.548;2022-10-26T05:55:27;7.20;;;5.40;;
7571;SDS011;3827;49.928;8.548;2022-10-26T05:57:55;5.67;;;4.73;;
7571;SDS011;3827;49.928;8.548;2022-10-26T06:00:23;5.50;;;4.53;;
7571;SDS011;3827;49.928;8.548;2022-10-26T06:03:05;5.38;;;4.10;;
7571;SDS011;3827;49.928;8.548;2022-10-26T06:05:37;4.97;;;4.18;;
7571;SDS011;3827;49.928;8.548;2022-10-26T06:08:18;6.95;;;4.25;;
7571;SDS011;3827;49.928;8.548;2022-10-26T06:10:47;4.88;;;4.35;;
7571;SDS011;3827;49.928;8.548;2022-10-26T06:13:14;7.28;;;4.57;;
7571;SDS011;3827;49.928;8.548;2022-10-26T06:15:44;5.43;;;4.57;;
7571;SDS011;3827;49.928;8.548;2022-10-26T06:18:24;6.80;;;5.55;;
7571;SDS011;3827;49.928;8.548;2022-10-26T06:21:08;8.70;;;5.13;;
7571;SDS011;3827;49.928;8.548;2022-10-26T06:23:44;7.13;;;4.73;;
7571;SDS011;3827;49.928;8.548;2022-10-26T06:26:23;7.05;;;5.05;;
7571;SDS011;3827;49.928;8.548;2022-10-26T06:28:58;7.63;;;4.85;;
7571;SDS011;3827;49.928;8.548;2022-10-26T06:31:34;7.40;;;5.00;;
7571;SDS011;3827;49.928;8.548;2022-10-26T06:34:01;5.10;;;4.20;;
7571;SDS011;3827;49.928;8.548;2022-10-26T06:36:28;6.15;;;4.35;;
7571;SDS011;3827;49.928;8.548;2022-10-26T06:38:57;5.63;;;4.60;;
7571;SDS011;3827;49.928;8.548;2022-10-26T06:41:28;6.78;;;5.03;;
7571;SDS011;3827;49.928;8.548;2022-10-26T06:43:57;7.18;;;4.68;;
7571;SDS011;3827;49.928;8.548;2022-10-26T06:46:27;6.68;;;5.30;;
7571;SDS011;3827;49.928;8.548;2022-10-26T06:49:02;6.38;;;5.55;;
7571;SDS011;3827;49.928;8.548;2022-10-26T06:51:40;6.60;;;4.80;;
7571;SDS011;3827;49.928;8.548;2022-10-26T06:54:13;6.32;;;5.18;;
7571;SDS011;3827;49.928;8.548;2022-10-26T06:56:46;6.47;;;4.85;;
7571;SDS011;3827;49.928;8.548;2022-10-26T06:59:15;5.50;;;4.90;;
7571;SDS011;3827;49.928;8.548;2022-10-26T07:01:54;6.10;;;4.70;;
7571;SDS011;3827;49.928;8.548;2022-10-26T07:04:21;5.70;;;4.68;;
7571;SDS011;3827;49.928;8.548;2022-10-26T07:06:48;5.03;;;4.53;;
7571;SDS011;3827;49.928;8.548;2022-10-26T07:09:15;5.78;;;4.90;;
7571;SDS011;3827;49.928;8.548;2022-10-26T07:11:42;5.10;;;4.60;;
7571;SDS011;3827;49.928;8.548;2022-10-26T07:14:10;6.63;;;4.55;;
7571;SDS011;3827;49.928;8.548;2022-10-26T07:16:36;4.60;;;4.20;;
7571;SDS011;3827;49.928;8.548;2022-10-26T07:19:03;6.63;;;4.38;;
7571;SDS011;3827;49.928;8.548;2022-10-26T07:21:30;6.93;;;4.80;;
7571;SDS011;3827;49.928;8.548;2022-10-26T07:23:57;4.67;;;4.13;;
7571;SDS011;3827;49.928;8.548;2022-10-26T07:26:24;4.80;;;4.30;;
7571;SDS011;3827;49.928;8.548;2022-10-26T07:28:51;4.82;;;4.32;;
7571;SDS011;3827;49.928;8.548;2022-10-26T07:31:19;5.13;;;4.35;;
7571;SDS011;3827;49.928;8.548;2022-10-26T07:33:46;6.60;;;4.63;;
7571;SDS011;3827;49.928;8.548;2022-10-26T07:36:13;6.97;;;4.82;;
7571;SDS011;3827;49.928;8.548;2022-10-26T07:38:40;6.03;;;4.10;;
7571;SDS011;3827;49.928;8.548;2022-10-26T07:41:06;6.13;;;4.53;;
7571;SDS011;3827;49.928;8.548;2022-10-26T07:43:33;7.78;;;5.03;;
7571;SDS011;3827;49.928;8.548;2022-10-26T07:46:00;6.40;;;5.40;;
7571;SDS011;3827;49.928;8.548;2022-10-26T07:48:28;5.60;;;4.60;;
7571;SDS011;3827;49.928;8.548;2022-10-26T07:50:55;7.18;;;5.00;;
7571;SDS011;3827;49.928;8.548;2022-10-26T07:53:22;9.38;;;5.90;;
7571;SDS011;3827;49.928;8.548;2022-10-26T07:55:52;7.90;;;5.03;;
7571;SDS011;3827;49.928;8.548;2022-10-26T07:58:19;5.93;;;4.93;;
7571;SDS011;3827;49.928;8.548;2022-10-26T08:00:48;6.50;;;4.87;;
7571;SDS011;3827;49.928;8.548;2022-10-26T08:03:15;7.07;;;4.85;;
7571;SDS011;3827;49.928;8.548;2022-10-26T08:05:44;5.00;;;4.10;;
7571;SDS011;3827;49.928;8.548;2022-10-26T08:08:10;5.63;;;4.18;;
7571;SDS011;3827;49.928;8.548;2022-10-26T08:10:40;7.45;;;4.93;;
7571;SDS011;3827;49.928;8.548;2022-10-26T08:13:08;5.57;;;4.20;;
7571;SDS011;3827;49.928;8.548;2022-10-26T08:15:35;8.15;;;4.72;;
7571;SDS011;3827;49.928;8.548;2022-10-26T08:18:02;9.55;;;5.00;;
7571;SDS011;3827;49.928;8.548;2022-10-26T08:20:29;7.93;;;4.80;;
7571;SDS011;3827;49.928;8.548;2022-10-26T08:22:58;6.43;;;4.82;;
7571;SDS011;3827;49.928;8.548;2022-10-26T08:25:25;7.93;;;4.32;;
7571;SDS011;3827;49.928;8.548;2022-10-26T08:27:52;6.22;;;4.43;;
7571;SDS011;3827;49.928;8.548;2022-10-26T08:30:19;4.50;;;3.70;;
7571;SDS011;3827;49.928;8.548;2022-10-26T08:32:46;7.63;;;4.20;;
7571;SDS011;3827;49.928;8.548;2022-10-26T08:35:13;5.45;;;4.05;;
7571;SDS011;3827;49.928;8.548;2022-10-26T08:37:40;5.32;;;4.22;;
7571;SDS011;3827;49.928;8.548;2022-10-26T08:40:10;5.78;;;3.97;;
7571;SDS011;3827;49.928;8.548;2022-10-26T08:42:42;7.38;;;3.78;;
7571;SDS011;3827;49.928;8.548;2022-10-26T08:45:16;4.57;;;3.70;;
7571;SDS011;3827;49.928;8.548;2022-10-26T08:47:50;7.57;;;3.50;;
7571;SDS011;3827;49.928;8.548;2022-10-26T08:50:22;4.73;;;3.70;;
7571;SDS011;3827;49.928;8.548;2022-10-26T08:52:52;6.07;;;4.30;;
7571;SDS011;3827;49.928;8.548;2022-10-26T08:55:31;4.10;;;3.53;;
7571;SDS011;3827;49.928;8.548;2022-10-26T08:58:04;4.13;;;3.33;;
7571;SDS011;3827;49.928;8.548;2022-10-26T09:00:35;5.20;;;3.30;;
7571;SDS011;3827;49.928;8.548;2022-10-26T09:03:05;3.97;;;3.30;;
7571;SDS011;3827;49.928;8.548;2022-10-26T09:05:41;6.70;;;3.38;;
7571;SDS011;3827;49.928;8.548;2022-10-26T09:08:30;5.55;;;3.25;;
7571;SDS011;3827;49.928;8.548;2022-10-26T09:11:05;5.65;;;3.50;;
7571;SDS011;3827;49.928;8.548;2022-10-26T09:13:41;4.90;;;3.22;;
7571;SDS011;3827;49.928;8.548;2022-10-26T09:16:21;4.72;;;3.47;;
7571;SDS011;3827;49.928;8.548;2022-10-26T09:18:55;5.70;;;3.40;;
7571;SDS011;3827;49.928;8.548;2022-10-26T09:21:37;5.85;;;3.40;;
7571;SDS011;3827;49.928;8.548;2022-10-26T09:24:12;5.15;;;3.22;;
7571;SDS011;3827;49.928;8.548;2022-10-26T09:26:47;5.55;;;3.80;;
7571;SDS011;3827;49.928;8.548;2022-10-26T09:29:19;8.10;;;5.00;;
7571;SDS011;3827;49.928;8.548;2022-10-26T09:31:50;5.53;;;3.45;;
7571;SDS011;3827;49.928;8.548;2022-10-26T09:34:20;6.68;;;4.70;;
7571;SDS011;3827;49.928;8.548;2022-10-26T09:36:52;6.80;;;3.30;;
7571;SDS011;3827;49.928;8.548;2022-10-26T09:39:22;5.07;;;3.03;;
7571;SDS011;3827;49.928;8.548;2022-10-26T09:41:56;3.60;;;3.20;;
7571;SDS011;3827;49.928;8.548;2022-10-26T09:44:27;5.85;;;3.67;;
7571;SDS011;3827;49.928;8.548;2022-10-26T09:47:00;4.53;;;3.08;;
7571;SDS011;3827;49.928;8.548;2022-10-26T09:49:33;6.18;;;3.03;;
7571;SDS011;3827;49.928;8.548;2022-10-26T09:52:05;4.55;;;3.20;;
7571;SDS011;3827;49.928;8.548;2022-10-26T09:54:32;5.87;;;3.60;;
7571;SDS011;3827;49.928;8.548;2022-10-26T09:57:01;3.65;;;3.30;;
7571;SDS011;3827;49.928;8.548;2022-10-26T09:59:29;5.45;;;3.45;;
7571;SDS011;3827;49.928;8.548;2022-10-26T10:02:01;8.23;;;3.50;;
7571;SDS011;3827;49.928;8.548;2022-10-26T10:04:55;3.63;;;2.80;;
7571;SDS011;3827;49.928;8.548;2022-10-26T10:07:22;7.53;;;3.17;;
7571;SDS011;3827;49.928;8.548;2022-10-26T10:09:57;4.85;;;3.20;;
7571;SDS011;3827;49.928;8.548;2022-10-26T10:12:33;10.55;;;3.25;;
7571;SDS011;3827;49.928;8.548;2022-10-26T10:15:00;4.55;;;3.22;;
7571;SDS011;3827;49.928;8.548;2022-10-26T10:17:27;6.57;;;3.00;;
7571;SDS011;3827;49.928;8.548;2022-10-26T10:19:54;5.38;;;3.33;;
7571;SDS011;3827;49.928;8.548;2022-10-26T10:22:33;6.18;;;3.42;;
7571;SDS011;3827;49.928;8.548;2022-10-26T10:25:01;5.45;;;3.17;;
7571;SDS011;3827;49.928;8.548;2022-10-26T10:27:30;6.03;;;3.40;;
7571;SDS011;3827;49.928;8.548;2022-10-26T10:30:14;33.83;;;8.20;;
7571;SDS011;3827;49.928;8.548;2022-10-26T10:32:48;6.38;;;3.53;;
7571;SDS011;3827;49.928;8.548;2022-10-26T10:35:30;6.30;;;3.40;;
7571;SDS011;3827;49.928;8.548;2022-10-26T10:37:57;6.22;;;3.25;;
7571;SDS011;3827;49.928;8.548;2022-10-26T10:40:25;4.90;;;3.20;;
7571;SDS011;3827;49.928;8.548;2022-10-26T10:42:54;7.93;;;3.10;;
7571;SDS011;3827;49.928;8.548;2022-10-26T10:45:31;5.47;;;3.28;;
7571;SDS011;3827;49.928;8.548;2022-10-26T10:48:00;5.85;;;3.67;;
7571;SDS011;3827;49.928;8.548;2022-10-26T10:50:28;4.82;;;3.03;;
7571;SDS011;3827;49.928;8.548;2022-10-26T10:55:39;4.35;;;3.20;;
7571;SDS011;3827;49.928;8.548;2022-10-26T10:58:12;6.22;;;3.20;;
7571;SDS011;3827;49.928;8.548;2022-10-26T11:00:49;6.43;;;2.88;;
7571;SDS011;3827;49.928;8.548;2022-10-26T11:03:32;5.47;;;3.23;;
7571;SDS011;3827;49.928;8.548;2022-10-26T11:06:09;5.00;;;3.30;;
7571;SDS011;3827;49.928;8.548;2022-10-26T11:08:42;6.85;;;3.17;;
7571;SDS011;3827;49.928;8.548;2022-10-26T11:11:14;9.20;;;3.55;;
7571;SDS011;3827;49.928;8.548;2022-10-26T11:13:47;9.70;;;2.93;;
7571;SDS011;3827;49.928;8.548;2022-10-26T11:16:21;5.60;;;3.53;;
7571;SDS011;3827;49.928;8.548;2022-10-26T11:18:53;4.75;;;3.03;;
7571;SDS011;3827;49.928;8.548;2022-10-26T11:21:25;5.82;;;3.35;;
7571;SDS011;3827;49.928;8.548;2022-10-26T11:23:56;7.93;;;3.10;;
7571;SDS011;3827;49.928;8.548;2022-10-26T11:26:37;4.35;;;2.75;;
7571;SDS011;3827;49.928;8.548;2022-10-26T11:29:10;5.63;;;3.10;;
7571;SDS011;3827;49.928;8.548;2022-10-26T11:31:48;6.50;;;2.97;;
7571;SDS011;3827;49.928;8.548;2022-10-26T11:34:20;4.63;;;2.78;;
7571;SDS011;3827;49.928;8.548;2022-10-26T11:36:53;4.78;;;2.80;;
7571;SDS011;3827;49.928;8.548;2022-10-26T11:39:26;4.55;;;2.97;;
7571;SDS011;3827;49.928;8.548;2022-10-26T11:42:04;4.60;;;2.67;;
7571;SDS011;3827;49.928;8.548;2022-10-26T11:44:37;5.45;;;2.80;;
7571;SDS011;3827;49.928;8.548;2022-10-26T11:47:11;6.00;;;2.75;;
7571;SDS011;3827;49.928;8.548;2022-10-26T11:49:42;6.10;;;2.70;;
7571;SDS011;3827;49.928;8.548;2022-10-26T11:52:15;5.60;;;2.67;;
7571;SDS011;3827;49.928;8.548;2022-10-26T11:54:47;9.02;;;2.78;;
7571;SDS011;3827;49.928;8.548;2022-10-26T11:57:18;5.20;;;3.00;;
7571;SDS011;3827;49.928;8.548;2022-10-26T11:59:48;4.72;;;2.40;;
7571;SDS011;3827;49.928;8.548;2022-10-26T12:02:20;6.43;;;3.13;;
7571;SDS011;3827;49.928;8.548;2022-10-26T12:04:49;7.80;;;3.50;;
7571;SDS011;3827;49.928;8.548;2022-10-26T12:07:21;5.03;;;2.58;;
7571;SDS011;3827;49.928;8.548;2022-10-26T12:09:51;6.47;;;3.20;;
7571;SDS011;3827;49.928;8.548;2022-10-26T12:12:21;4.40;;;2.80;;
7571;SDS011;3827;49.928;8.548;2022-10-26T12:14:55;3.75;;;2.80;;
7571;SDS011;3827;49.928;8.548;2022-10-26T12:17:30;5.97;;;2.65;;
7571;SDS011;3827;49.928;8.548;2022-10-26T12:20:05;6.70;;;2.90;;
7571;SDS011;3827;49.928;8.548;2022-10-26T12:22:43;7.45;;;2.88;;
7571;SDS011;3827;49.928;8.548;2022-10-26T12:25:17;6.70;;;2.90;;
7571;SDS011;3827;49.928;8.548;2022-10-26T12:27:50;4.17;;;2.57;;
7571;SDS011;3827;49.928;8.548;2022-10-26T12:30:23;7.47;;;2.95;;
7571;SDS011;3827;49.928;8.548;2022-10-26T12:32:53;7.57;;;2.72;;
7571;SDS011;3827;49.928;8.548;2022-10-26T12:35:28;6.93;;;2.88;;
7571;SDS011;3827;49.928;8.548;2022-10-26T12:38:00;6.77;;;3.47;;
7571;SDS011;3827;49.928;8.548;2022-10-26T12:40:47;6.50;;;2.55;;
7571;SDS011;3827;49.928;8.548;2022-10-26T12:43:33;4.77;;;2.33;;
7571;SDS011;3827;49.928;8.548;2022-10-26T12:52:21;10.23;;;2.73;;
7571;SDS011;3827;49.928;8.548;2022-10-26T12:58:13;6.13;;;2.47;;
7571;SDS011;3827;49.928;8.548;2022-10-26T13:01:09;3.93;;;1.90;;
7571;SDS011;3827;49.928;8.548;2022-10-26T13:03:50;8.53;;;2.40;;
7571;SDS011;3827;49.928;8.548;2022-10-26T13:06:35;7.30;;;2.13;;
7571;SDS011;3827;49.928;8.548;2022-10-26T13:09:15;3.30;;;1.88;;
7571;SDS011;3827;49.928;8.548;2022-10-26T13:11:46;4.05;;;2.03;;
7571;SDS011;3827;49.928;8.548;2022-10-26T13:14:17;6.97;;;2.22;;
7571;SDS011;3827;49.928;8.548;2022-10-26T13:16:47;7.22;;;2.20;;
7571;SDS011;3827;49.928;8.548;2022-10-26T13:19:23;4.68;;;1.70;;
7571;SDS011;3827;49.928;8.548;2022-10-26T13:21:52;11.73;;;2.35;;
7571;SDS011;3827;49.928;8.548;2022-10-26T13:24:24;8.80;;;2.25;;
7571;SDS011;3827;49.928;8.548;2022-10-26T13:30:11;5.93;;;2.25;;
7571;SDS011;3827;49.928;8.548;2022-10-26T13:35:55;3.90;;;2.10;;
7571;SDS011;3827;49.928;8.548;2022-10-26T13:38:26;6.97;;;2.55;;
7571;SDS011;3827;49.928;8.548;2022-10-26T13:41:06;7.68;;;2.28;;
7571;SDS011;3827;49.928;8.548;2022-10-26T13:43:41;4.03;;;1.95;;
7571;SDS011;3827;49.928;8.548;2022-10-26T13:46:12;7.18;;;2.20;;
7571;SDS011;3827;49.928;8.548;2022-10-26T13:48:52;5.65;;;1.90;;
7571;SDS011;3827;49.928;8.548;2022-10-26T13:51:24;7.50;;;2.05;;
7571;SDS011;3827;49.928;8.548;2022-10-26T13:53:58;10.02;;;2.35;;
7571;SDS011;3827;49.928;8.548;2022-10-26T13:56:31;6.47;;;2.15;;
7571;SDS011;3827;49.928;8.548;2022-10-26T13:59:00;9.07;;;2.60;;
7571;SDS011;3827;49.928;8.548;2022-10-26T14:01:29;6.32;;;2.13;;
7571;SDS011;3827;49.928;8.548;2022-10-26T14:03:57;5.75;;;2.10;;
7571;SDS011;3827;49.928;8.548;2022-10-26T14:06:26;4.03;;;2.17;;
7571;SDS011;3827;49.928;8.548;2022-10-26T14:08:55;4.17;;;1.67;;
7571;SDS011;3827;49.928;8.548;2022-10-26T14:11:27;6.20;;;2.07;;
7571;SDS011;3827;49.928;8.548;2022-10-26T14:13:59;4.18;;;1.75;;
7571;SDS011;3827;49.928;8.548;2022-10-26T14:16:28;6.60;;;1.90;;
7571;SDS011;3827;49.928;8.548;2022-10-26T14:18:57;5.25;;;1.70;;
7571;SDS011;3827;49.928;8.548;2022-10-26T14:21:24;3.47;;;1.50;;
7571;SDS011;3827;49.928;8.548;2022-10-26T14:23:51;4.20;;;1.50;;
7571;SDS011;3827;49.928;8.548;2022-10-26T14:26:21;4.28;;;1.60;;
7571;SDS011;3827;49.928;8.548;2022-10-26T14:28:51;4.47;;;1.67;;
7571;SDS011;3827;49.928;8.548;2022-10-26T14:31:23;1.80;;;1.30;;
7571;SDS011;3827;49.928;8.548;2022-10-26T14:33:52;5.78;;;1.67;;
7571;SDS011;3827;49.928;8.548;2022-10-26T14:36:21;3.70;;;1.60;;
7571;SDS011;3827;49.928;8.548;2022-10-26T14:38:53;3.42;;;1.30;;
7571;SDS011;3827;49.928;8.548;2022-10-26T14:41:23;2.70;;;1.55;;
7571;SDS011;3827;49.928;8.548;2022-10-26T14:43:52;4.60;;;1.75;;
7571;SDS011;3827;49.928;8.548;2022-10-26T14:46:21;4.17;;;1.60;;
7571;SDS011;3827;49.928;8.548;2022-10-26T14:48:49;5.05;;;1.58;;
7571;SDS011;3827;49.928;8.548;2022-10-26T14:51:19;2.65;;;1.63;;
7571;SDS011;3827;49.928;8.548;2022-10-26T14:53:51;4.78;;;1.63;;
7571;SDS011;3827;49.928;8.548;2022-10-26T14:56:23;4.53;;;1.90;;
7571;SDS011;3827;49.928;8.548;2022-10-26T14:58:54;3.90;;;1.52;;
7571;SDS011;3827;49.928;8.548;2022-10-26T15:01:26;3.40;;;1.70;;
7571;SDS011;3827;49.928;8.548;2022-10-26T15:03:58;5.80;;;2.20;;
7571;SDS011;3827;49.928;8.548;2022-10-26T15:06:30;2.55;;;1.58;;
7571;SDS011;3827;49.928;8.548;2022-10-26T15:08:59;3.58;;;1.90;;
7571;SDS011;3827;49.928;8.548;2022-10-26T15:11:28;4.97;;;1.80;;
7571;SDS011;3827;49.928;8.548;2022-10-26T15:13:59;3.63;;;1.70;;
7571;SDS011;3827;49.928;8.548;2022-10-26T15:16:26;5.20;;;1.83;;
7571;SDS011;3827;49.928;8.548;2022-10-26T15:18:55;4.13;;;1.77;;
7571;SDS011;3827;49.928;8.548;2022-10-26T15:21:25;3.50;;;2.03;;
7571;SDS011;3827;49.928;8.548;2022-10-26T15:23:55;3.20;;;1.60;;
7571;SDS011;3827;49.928;8.548;2022-10-26T15:26:23;3.45;;;1.95;;
7571;SDS011;3827;49.928;8.548;2022-10-26T15:28:52;3.00;;;1.98;;
7571;SDS011;3827;49.928;8.548;2022-10-26T15:31:31;3.33;;;1.70;;
7571;SDS011;3827;49.928;8.548;2022-10-26T15:34:06;4.40;;;1.80;;
7571;SDS011;3827;49.928;8.548;2022-10-26T15:36:38;3.20;;;1.73;;
7571;SDS011;3827;49.928;8.548;2022-10-26T15:39:07;2.30;;;1.52;;
7571;SDS011;3827;49.928;8.548;2022-10-26T15:41:35;5.13;;;2.00;;
7571;SDS011;3827;49.928;8.548;2022-10-26T15:44:04;2.63;;;1.83;;
7571;SDS011;3827;49.928;8.548;2022-10-26T15:46:39;2.60;;;1.98;;
7571;SDS011;3827;49.928;8.548;2022-10-26T15:49:06;4.47;;;2.25;;
7571;SDS011;3827;49.928;8.548;2022-10-26T15:51:39;3.03;;;2.10;;
7571;SDS011;3827;49.928;8.548;2022-10-26T15:54:07;4.30;;;2.30;;
7571;SDS011;3827;49.928;8.548;2022-10-26T15:56:34;4.95;;;2.45;;
7571;SDS011;3827;49.928;8.548;2022-10-26T15:59:04;5.20;;;2.35;;
7571;SDS011;3827;49.928;8.548;2022-10-26T16:01:37;4.18;;;2.60;;